Airfield :
LOGIN :

Register | Disclaimer

   EN    FR    IT 

 










Legend :    VFR   Marginal VFR   IFR   Intensive IFR   Very Intensive IFR
Visi :
Ceiling :
>= 8 km
>= 3000ft
5 to 8 km
1000 to 3000 ft
1500m to 5 km
500 to 1000 ft
800 to 1500m
200 to 500 ft
< 800m
< 200 ft
Symbols :   Thunderstorms  Fog  Heavy snow  Heavy precipitations  Wind > 20 kt
SIGMETs :     Misc.  Thunderstorms  Icing  Turbulence  Mountain Waves  Volcanic Ashes






- Airport Elevation : 72 ft
- IATA code : UDE


EHVK - Volkel Airbase

CURRENT METAR :
  • 071125Z AUTO 13005KT 120V250 9999 NCD 33/12 Q1019 BLU NOSIG

EXPIRED METARs :
  • 071058Z AUTO 11004KT 050V200 9999 NCD 32/13 Q1019 BLU NOSIG
  • 071055Z AUTO 13003KT 080V250 9999 NCD 32/13 Q1019 BLU
  • 071025Z AUTO 15005KT 060V210 9999 NCD 32/12 Q1020 BLU
  • 070955Z AUTO 14005KT 080V180 9999 NCD 31/14 Q1020 BLU
  • 070925Z AUTO 20004KT 100V250 9999 NCD 31/14 Q1020 BLU NOSIG
  • 070855Z AUTO 17004KT 090V180 9999 NCD 29/15 Q1020 BLU NOSIG

TAF TAF EHVK
Valid from the 07 at 09:00 until the 07 at 21:00 UTC


070816Z 0709/0721 14004KT CAVOK
BECMG 0714/0717 07003KT



MET'MAP, your aeronautical weather chart ! - Copyright ORBIFLY December 2007 - Disclaimer

ORBIFLY MET'MAP TEAM :

Programming & Development : Alexandra Zaïnal
Concept & original design : Baudouin d'Aumeries
Assistance for programming : Marc-Olivier Méhu
Technical & hardware support : Manuel Goepfert

Contact : metmap@orbifly.com




SOURCES & CREDITS :

   NOAA